Time;durP1;ratioP1;P1;durP2;ratioP2;P2;SDS_P1;SDS_P2;PMS_P1;PMS_P2;Temp;Humidity;BMP_temperature;BMP_pressure;BME280_temperature;BME280_humidity;BME280_pressure;Samples;Min_cycle;Max_cycle;Signal;HPM_P1;HPM_P2
2022/06/03 00:00:24;;;;;;;9.63;7.10;;;11.40;99.90;;;;;;5055772;28;20357;-71
2022/06/03 00:03:05;;;;;;;11.95;7.43;;;11.40;99.90;;;;;;5056569;28;20045;-71
2022/06/03 00:05:42;;;;;;;9.85;6.35;;;11.40;99.90;;;;;;5039486;28;20150;-71
2022/06/03 00:08:33;;;;;;;8.38;7.47;;;11.30;99.90;;;;;;5038955;28;20501;-71
2022/06/03 00:11:35;;;;;;;10.73;7.45;;;11.40;99.90;;;;;;5038238;28;20044;-70
2022/06/03 00:14:28;;;;;;;9.57;7.35;;;11.30;99.90;;;;;;5056314;28;20041;-71
2022/06/03 00:17:02;;;;;;;10.45;6.55;;;11.30;99.90;;;;;;5055974;28;20442;-70
2022/06/03 00:19:47;;;;;;;;;;;11.30;99.90;;;;;;5055449;28;20479;-70
2022/06/03 00:22:12;;;;;;;9.77;7.13;;;11.20;99.90;;;;;;5038412;28;19928;-71
2022/06/03 00:24:45;;;;;;;11.43;7.60;;;11.20;99.90;;;;;;5056637;28;20358;-71
2022/06/03 00:27:29;;;;;;;10.63;7.30;;;11.20;99.90;;;;;;5037993;28;20045;-71
2022/06/03 00:30:15;;;;;;;12.48;6.82;;;11.20;99.90;;;;;;5055531;28;20071;-72
2022/06/03 00:33:31;;;;;;;10.07;7.50;;;11.20;99.90;;;;;;5056359;28;20049;-71
2022/06/03 00:36:19;;;;;;;13.18;7.43;;;11.20;99.90;;;;;;4997329;28;20068;-70
2022/06/03 00:38:59;;;;;;;12.15;7.55;;;11.20;99.90;;;;;;5056234;28;20410;-70
2022/06/03 00:41:46;;;;;;;8.98;7.25;;;11.20;99.90;;;;;;5075150;28;20037;-71
2022/06/03 00:44:19;;;;;;;8.63;7.22;;;11.10;99.90;;;;;;5039624;28;20045;-70
2022/06/03 00:47:04;;;;;;;10.40;7.38;;;11.10;99.90;;;;;;5036183;28;20092;-71
2022/06/03 00:49:39;;;;;;;9.27;7.22;;;11.10;99.90;;;;;;5005672;28;20040;-71
2022/06/03 00:52:42;;;;;;;11.40;7.75;;;11.00;99.90;;;;;;5037537;28;20056;-71
2022/06/03 00:55:51;;;;;;;7.80;6.70;;;11.00;99.90;;;;;;5055519;28;20048;-71
2022/06/03 00:59:04;;;;;;;9.63;7.35;;;11.00;99.90;;;;;;5055444;28;20056;-71
2022/06/03 01:01:42;;;;;;;10.32;8.40;;;10.90;99.90;;;;;;5021915;28;20068;-71
2022/06/03 01:04:17;;;;;;;12.57;7.35;;;10.90;99.90;;;;;;5035675;28;20064;-70
2022/06/03 01:07:19;;;;;;;15.38;9.00;;;10.90;99.90;;;;;;5035198;28;20123;-71
2022/06/03 01:09:52;;;;;;;11.85;8.23;;;10.90;99.90;;;;;;5040822;28;20068;-72
2022/06/03 01:12:45;;;;;;;11.63;7.67;;;10.80;99.90;;;;;;5055511;28;20045;-71
2022/06/03 01:15:31;;;;;;;11.73;8.60;;;10.90;99.90;;;;;;5054504;28;20455;-70
2022/06/03 01:18:03;;;;;;;7.40;6.60;;;10.80;99.90;;;;;;5055313;28;20090;-71
2022/06/03 01:20:32;;;;;;;11.15;7.43;;;10.80;99.90;;;;;;5054576;28;20467;-70
2022/06/03 01:23:29;;;;;;;12.85;7.70;;;10.80;99.90;;;;;;5055336;28;20055;-72
2022/06/03 01:26:18;;;;;;;11.77;7.88;;;10.80;99.90;;;;;;5055024;28;20041;-70
2022/06/03 01:29:11;;;;;;;13.07;8.07;;;10.80;99.90;;;;;;5021058;28;20084;-70
2022/06/03 01:31:37;;;;;;;14.32;9.02;;;10.80;99.90;;;;;;5041341;28;20486;-70
2022/06/03 01:34:40;;;;;;;8.95;6.93;;;10.70;99.90;;;;;;5074778;28;20052;-70
2022/06/03 01:37:42;;;;;;;10.80;8.30;;;10.70;99.90;;;;;;5075111;28;20394;-70
2022/06/03 01:40:13;;;;;;;14.55;8.43;;;10.70;99.90;;;;;;5072686;28;20462;-70
2022/06/03 01:43:02;;;;;;;9.63;7.93;;;10.70;99.90;;;;;;5057245;28;20055;-70
2022/06/03 01:45:39;;;;;;;10.60;8.18;;;10.70;99.90;;;;;;5074766;28;20077;-71
2022/06/03 01:48:11;;;;;;;14.23;9.18;;;10.70;99.90;;;;;;5057493;28;20343;-70
2022/06/03 01:50:50;;;;;;;11.75;8.55;;;10.60;99.90;;;;;;5061076;28;20485;-69
2022/06/03 01:53:49;;;;;;;11.98;7.75;;;10.60;99.90;;;;;;5054290;28;20529;-72
2022/06/03 01:56:44;;;;;;;12.38;8.52;;;10.60;99.90;;;;;;5054911;28;20064;-71
2022/06/03 01:59:30;;;;;;;10.63;8.43;;;10.60;99.90;;;;;;5053711;28;20045;-70
2022/06/03 02:02:07;;;;;;;11.57;8.43;;;10.60;99.90;;;;;;5017235;28;20046;-71
2022/06/03 02:04:54;;;;;;;9.68;8.25;;;10.50;99.90;;;;;;5035060;28;20060;-71
2022/06/03 02:07:50;;;;;;;12.90;8.23;;;10.60;99.90;;;;;;5034448;28;20042;-70
2022/06/03 02:10:37;;;;;;;9.30;8.02;;;10.60;99.90;;;;;;5026674;28;20061;-69
2022/06/03 02:13:28;;;;;;;12.88;8.15;;;10.50;99.90;;;;;;5054475;28;20060;-71
2022/06/03 02:16:02;;;;;;;10.85;7.78;;;10.50;99.90;;;;;;5036916;28;20106;-71
2022/06/03 02:19:03;;;;;;;10.85;8.38;;;10.50;99.90;;;;;;5054766;28;20053;-70
2022/06/03 02:21:51;;;;;;;8.95;8.05;;;10.50;99.90;;;;;;5053594;28;20063;-70
2022/06/03 02:24:47;;;;;;;11.00;8.35;;;10.50;99.90;;;;;;5054473;28;20107;-69
2022/06/03 02:27:43;;;;;;;13.68;8.38;;;10.50;99.90;;;;;;5053452;28;20503;-71
2022/06/03 02:30:43;;;;;;;12.68;8.93;;;10.50;99.90;;;;;;5053282;28;20045;-70
2022/06/03 02:33:24;;;;;;;11.10;8.48;;;10.50;99.90;;;;;;5054666;28;20049;-70
2022/06/03 02:36:11;;;;;;;14.98;8.57;;;10.40;99.90;;;;;;5053848;28;20497;-70
2022/06/03 02:39:02;;;;;;;11.15;8.82;;;10.40;99.90;;;;;;5053870;28;20048;-70
2022/06/03 02:42:04;;;;;;;13.57;8.52;;;10.40;99.90;;;;;;5070145;28;20045;-70
2022/06/03 02:44:55;;;;;;;10.35;8.65;;;10.40;99.90;;;;;;5074629;28;20048;-71
2022/06/03 02:47:43;;;;;;;12.57;8.88;;;10.40;99.90;;;;;;5052366;28;20485;-70
2022/06/03 02:50:28;;;;;;;11.55;8.60;;;10.40;99.90;;;;;;5056875;28;20052;-71
2022/06/03 02:53:17;;;;;;;11.45;7.95;;;10.40;99.90;;;;;;5074349;28;20055;-71
2022/06/03 02:56:20;;;;;;;10.65;8.63;;;10.40;99.90;;;;;;5074111;28;20048;-70
2022/06/03 02:59:13;;;;;;;8.63;7.72;;;10.40;99.90;;;;;;5034070;28;20383;-70
2022/06/03 03:01:42;;;;;;;10.50;8.65;;;10.40;99.90;;;;;;5033745;28;20057;-70
2022/06/03 03:04:30;;;;;;;10.50;9.40;;;10.40;99.90;;;;;;5036241;28;20115;-70
2022/06/03 03:07:19;;;;;;;9.25;8.13;;;10.30;99.90;;;;;;5043093;28;20124;-70
2022/06/03 03:10:03;;;;;;;11.98;8.98;;;10.40;99.90;;;;;;5057490;28;20037;-70
2022/06/03 03:13:00;;;;;;;11.32;8.23;;;10.30;99.90;;;;;;5057954;28;20063;-70
2022/06/03 03:15:51;;;;;;;11.52;8.45;;;10.40;99.90;;;;;;5057626;28;20486;-72
2022/06/03 03:18:54;;;;;;;10.93;8.80;;;10.30;99.90;;;;;;5056602;28;20063;-71
2022/06/03 03:21:50;;;;;;;9.90;8.82;;;10.30;99.90;;;;;;5057402;28;20084;-70
2022/06/03 03:24:58;;;;;;;10.52;8.57;;;10.30;99.90;;;;;;5036457;28;20061;-70
2022/06/03 03:27:48;;;;;;;11.80;8.70;;;10.40;99.90;;;;;;5036475;28;20448;-72
2022/06/03 03:31:00;;;;;;;10.70;8.40;;;10.30;99.90;;;;;;5037789;28;20052;-71
2022/06/03 03:33:59;;;;;;;11.73;8.10;;;10.30;99.90;;;;;;5033383;28;20050;-71
2022/06/03 03:36:43;;;;;;;10.23;8.63;;;10.30;99.90;;;;;;5035531;28;20041;-71
2022/06/03 03:39:39;;;;;;;13.07;8.63;;;10.30;99.90;;;;;;5046848;28;20042;-69
2022/06/03 03:42:38;;;;;;;13.05;9.35;;;10.30;99.90;;;;;;5020745;28;20056;-71
2022/06/03 03:45:09;;;;;;;11.18;8.80;;;10.40;99.90;;;;;;5017397;28;20049;-70
2022/06/03 03:47:53;;;;;;;13.43;8.55;;;10.30;99.90;;;;;;5027713;28;20096;-71
2022/06/03 03:50:42;;;;;;;9.77;7.90;;;10.30;99.90;;;;;;5037202;28;20521;-71
2022/06/03 03:53:29;;;;;;;10.43;8.60;;;10.30;99.90;;;;;;5037158;28;20064;-71
2022/06/03 03:56:32;;;;;;;11.00;9.00;;;10.30;99.90;;;;;;5037105;28;20057;-71
2022/06/03 03:59:19;;;;;;;12.80;8.50;;;10.30;99.90;;;;;;5017251;28;20133;-71
2022/06/03 04:02:00;;;;;;;11.43;8.55;;;10.30;99.90;;;;;;5017179;28;20080;-70
2022/06/03 04:04:54;;;;;;;10.25;8.10;;;10.40;99.90;;;;;;5017640;28;20038;-72
2022/06/03 04:07:38;;;;;;;10.27;8.55;;;10.30;99.90;;;;;;5024492;28;20065;-70
2022/06/03 04:10:09;;;;;;;10.57;8.35;;;10.30;99.90;;;;;;5017225;28;20062;-70
2022/06/03 04:13:05;;;;;;;11.30;8.20;;;10.30;99.90;;;;;;5016921;28;20045;-70
2022/06/03 04:16:05;;;;;;;11.60;9.30;;;10.40;99.90;;;;;;5016721;28;20085;-70
2022/06/03 04:18:40;;;;;;;11.65;7.95;;;10.40;99.90;;;;;;5031590;28;20072;-71
2022/06/03 04:21:14;;;;;;;;;;;10.40;99.90;;;;;;5056099;28;20355;-70
2022/06/03 04:24:14;;;;;;;10.35;8.00;;;10.40;99.90;;;;;;5062314;28;19924;-71
2022/06/03 04:26:51;;;;;;;11.30;8.43;;;10.40;99.90;;;;;;5076114;28;20366;-71
2022/06/03 04:30:12;;;;;;;9.75;7.50;;;10.40;99.90;;;;;;5070352;28;20511;-71
2022/06/03 04:32:49;;;;;;;11.88;8.63;;;10.50;99.90;;;;;;5056292;28;20056;-70
2022/06/03 04:35:45;;;;;;;9.13;7.47;;;10.50;99.90;;;;;;5037528;28;20075;-70
2022/06/03 04:38:35;;;;;;;9.13;7.95;;;10.50;99.90;;;;;;5066920;28;20049;-70
2022/06/03 04:41:13;;;;;;;11.95;8.23;;;10.60;99.90;;;;;;5075800;28;20378;-70
2022/06/03 04:44:02;;;;;;;12.15;9.48;;;10.60;99.90;;;;;;5075793;28;20048;-70
2022/06/03 04:46:58;;;;;;;11.50;8.27;;;10.60;99.90;;;;;;5060883;28;20045;-71
2022/06/03 04:49:24;;;;;;;11.10;7.40;;;10.70;99.90;;;;;;5036011;28;20432;-71
2022/06/03 04:52:14;;;;;;;11.13;8.55;;;10.70;99.90;;;;;;5036078;28;20140;-71
2022/06/03 04:55:18;;;;;;;10.98;9.00;;;10.70;99.90;;;;;;5035137;28;20376;-74
2022/06/03 04:58:01;;;;;;;11.77;10.13;;;10.70;99.90;;;;;;5055272;28;20316;-71
2022/06/03 05:00:41;;;;;;;12.77;9.80;;;10.80;99.90;;;;;;5037286;28;20359;-74
2022/06/03 05:03:26;;;;;;;14.55;10.25;;;10.80;99.90;;;;;;5071854;28;20044;-74
2022/06/03 05:06:09;;;;;;;15.10;12.85;;;10.80;99.90;;;;;;5076028;28;20040;-73
2022/06/03 05:09:12;;;;;;;13.88;11.15;;;10.90;99.90;;;;;;5075330;28;20063;-71
2022/06/03 05:12:17;;;;;;;12.90;10.50;;;11.00;99.90;;;;;;5052372;28;20053;-70
2022/06/03 05:14:59;;;;;;;12.63;10.77;;;11.00;99.90;;;;;;5070814;28;20052;-71
2022/06/03 05:17:52;;;;;;;16.42;11.30;;;11.00;99.90;;;;;;5076097;28;20036;-72
2022/06/03 05:20:35;;;;;;;15.57;10.13;;;11.10;99.90;;;;;;5042178;28;20052;-71
2022/06/03 05:23:16;;;;;;;13.95;9.48;;;11.10;99.90;;;;;;5037006;28;20040;-72
2022/06/03 05:25:57;;;;;;;12.07;9.75;;;11.20;99.90;;;;;;5049568;28;20063;-72
2022/06/03 05:28:41;;;;;;;12.10;9.10;;;11.20;99.90;;;;;;5052345;28;20084;-72
2022/06/03 05:31:44;;;;;;;13.52;10.18;;;11.20;99.90;;;;;;5051458;28;20049;-71
2022/06/03 05:34:37;;;;;;;12.32;9.98;;;11.30;99.90;;;;;;5060403;28;20062;-72
2022/06/03 05:37:35;;;;;;;14.13;9.57;;;11.30;99.90;;;;;;5074538;28;20044;-72
2022/06/03 05:40:13;;;;;;;11.70;10.45;;;11.40;99.90;;;;;;5069079;28;20352;-71
2022/06/03 05:43:11;;;;;;;13.77;9.98;;;11.50;99.90;;;;;;5053194;28;20113;-72
2022/06/03 05:46:11;;;;;;;12.73;9.65;;;11.50;99.90;;;;;;5054828;28;20083;-71
2022/06/03 05:49:21;;;;;;;14.38;8.82;;;11.60;99.90;;;;;;5064527;28;20446;-71
2022/06/03 05:52:02;;;;;;;12.43;8.93;;;11.70;99.90;;;;;;4969774;28;20374;-71
2022/06/03 05:54:57;;;;;;;11.55;9.20;;;11.70;99.90;;;;;;4966058;28;20054;-73
2022/06/03 05:57:44;;;;;;;10.88;8.18;;;11.80;99.90;;;;;;5037902;28;20055;-72
2022/06/03 06:00:26;;;;;;;9.25;7.85;;;11.80;99.90;;;;;;5060547;28;20041;-74
2022/06/03 06:02:52;;;;;;;11.07;6.75;;;11.90;99.90;;;;;;5069293;28;20138;-70
2022/06/03 06:05:41;;;;;;;12.88;6.90;;;12.00;99.90;;;;;;5071681;28;20119;-71
2022/06/03 06:08:21;;;;;;;7.60;6.80;;;12.00;99.90;;;;;;5060741;28;20128;-74
2022/06/03 06:11:17;;;;;;;11.18;6.05;;;12.10;99.90;;;;;;5057196;28;20379;-72
2022/06/03 06:14:03;;;;;;;7.53;6.10;;;12.20;99.90;;;;;;5054495;28;20048;-71
2022/06/03 06:16:37;;;;;;;9.57;5.60;;;12.30;99.90;;;;;;5054413;28;20092;-73
2022/06/03 06:19:04;;;;;;;7.25;5.57;;;12.40;99.90;;;;;;5051365;28;20045;-73
2022/06/03 06:21:47;;;;;;;6.88;5.03;;;12.50;99.90;;;;;;5064096;28;20055;-76
2022/06/03 06:24:45;;;;;;;11.00;4.50;;;12.60;99.90;;;;;;5056290;28;20052;-73
2022/06/03 06:27:44;;;;;;;5.25;3.70;;;12.70;99.90;;;;;;5059032;28;20072;-77
2022/06/03 06:30:25;;;;;;;4.95;3.58;;;12.90;99.90;;;;;;5039666;28;20395;-75
2022/06/03 06:33:16;;;;;;;4.55;3.33;;;12.90;99.90;;;;;;5054610;28;20041;-77
2022/06/03 06:36:07;;;;;;;5.57;3.40;;;13.10;99.90;;;;;;5046694;28;20586;-78
2022/06/03 06:38:44;;;;;;;6.22;3.55;;;13.20;99.90;;;;;;5070680;28;20048;-75
2022/06/03 06:41:46;;;;;;;5.40;3.60;;;13.30;99.90;;;;;;5059015;28;20128;-78
2022/06/03 06:44:19;;;;;;;5.68;3.25;;;13.40;99.90;;;;;;5060067;28;20044;-81
2022/06/03 06:46:45;;;;;;;5.30;3.60;;;13.60;99.90;;;;;;5078018;28;20063;-79
2022/06/03 06:49:24;;;;;;;7.47;3.80;;;13.70;99.90;;;;;;5043975;28;20127;-76
2022/06/03 06:52:18;;;;;;;5.68;4.05;;;13.80;99.90;;;;;;5067633;28;20041;-80
2022/06/03 06:54:55;;;;;;;5.28;3.65;;;14.10;99.90;;;;;;5064130;28;20546;-80
2022/06/03 06:57:33;;;;;;;5.45;3.45;;;14.20;99.90;;;;;;5041908;28;20114;-78
2022/06/03 07:00:17;;;;;;;7.55;3.80;;;14.30;99.90;;;;;;5043866;28;20044;-80
2022/06/03 07:03:06;;;;;;;5.00;3.55;;;14.50;99.90;;;;;;5055693;28;20049;-78
2022/06/03 07:05:45;;;;;;;4.78;3.25;;;14.70;99.90;;;;;;5037173;28;20053;-80
2022/06/03 07:08:16;;;;;;;5.93;3.40;;;14.70;99.90;;;;;;5056636;28;20084;-79
2022/06/03 07:11:06;;;;;;;5.10;3.63;;;14.80;99.90;;;;;;5024777;28;20055;-83
2022/06/03 07:13:35;;;;;;;4.30;3.45;;;15.00;99.90;;;;;;5038273;28;20045;-78
2022/06/03 07:22:27;;;;;;;6.20;3.80;;;15.40;99.90;;;;;;5053511;28;20049;-79
2022/06/03 07:25:04;;;;;;;5.32;3.47;;;15.50;99.90;;;;;;5042163;28;20467;-78
2022/06/03 07:27:44;;;;;;;5.65;3.58;;;15.70;99.90;;;;;;5074021;28;20135;-73
2022/06/03 07:30:31;;;;;;;5.75;3.38;;;15.80;99.90;;;;;;5077305;28;20037;-73
2022/06/03 07:33:06;;;;;;;4.03;2.85;;;16.00;99.90;;;;;;5077321;28;20055;-72
2022/06/03 07:35:47;;;;;;;6.00;3.30;;;16.10;99.90;;;;;;5077236;28;20059;-74
2022/06/03 07:38:22;;;;;;;4.88;3.17;;;16.20;99.90;;;;;;5063159;28;20084;-74
2022/06/03 07:41:06;;;;;;;3.95;3.15;;;16.40;99.90;;;;;;5059731;28;20062;-73
2022/06/03 07:43:37;;;;;;;6.40;3.05;;;16.40;99.90;;;;;;5077137;28;20102;-77
2022/06/03 07:46:16;;;;;;;4.85;3.25;;;16.50;99.90;;;;;;5057821;28;20048;-78
2022/06/03 07:48:42;;;;;;;4.97;3.00;;;16.70;99.90;;;;;;5038896;28;20135;-77
2022/06/03 07:51:45;;;;;;;4.88;3.13;;;16.80;99.90;;;;;;5055072;28;20372;-72
2022/06/03 07:54:27;;;;;;;4.68;3.00;;;16.80;99.90;;;;;;5056142;28;20049;-74
2022/06/03 07:57:08;;;;;;;3.92;2.90;;;17.00;99.90;;;;;;5056957;28;20041;-73
2022/06/03 07:59:37;;;;;;;3.42;2.47;;;17.00;99.90;;;;;;5056994;28;20041;-72
2022/06/03 08:02:16;;;;;;;5.28;2.80;;;17.10;99.90;;;;;;5057082;28;20045;-75
2022/06/03 08:04:42;;;;;;;5.18;3.15;;;17.10;99.90;;;;;;5039984;28;20044;-71
2022/06/03 08:13:04;;;;;;;3.67;3.20;;;17.30;99.90;;;;;;5036731;28;20049;-72
2022/06/03 08:15:35;;;;;;;3.95;2.95;;;17.40;99.90;;;;;;5047471;28;20052;-74
2022/06/03 08:18:05;;;;;;;4.90;3.33;;;17.50;99.90;;;;;;5038101;28;20049;-73
2022/06/03 08:20:36;;;;;;;5.20;3.28;;;17.50;99.90;;;;;;5069940;28;20049;-74
2022/06/03 08:23:04;;;;;;;3.10;2.80;;;17.60;99.90;;;;;;5068035;28;20425;-73
2022/06/03 08:25:37;;;;;;;5.07;3.00;;;17.60;99.90;;;;;;5051933;28;20072;-71
2022/06/03 08:28:03;;;;;;;6.85;3.15;;;17.70;99.90;;;;;;5048707;28;20087;-73
2022/06/03 08:30:29;;;;;;;3.58;3.03;;;17.80;99.90;;;;;;5055834;28;20057;-73
2022/06/03 08:33:03;;;;;;;5.88;3.50;;;17.90;99.90;;;;;;5064613;28;20045;-73
2022/06/03 08:35:33;;;;;;;7.25;3.38;;;18.00;99.90;;;;;;5075212;28;20065;-75
2022/06/03 08:38:10;;;;;;;4.68;2.83;;;18.10;99.90;;;;;;5052505;28;20183;-72
2022/06/03 08:40:54;;;;;;;4.07;3.05;;;18.20;99.90;;;;;;5053474;28;20036;-73
2022/06/03 08:43:34;;;;;;;4.55;3.08;;;18.30;99.90;;;;;;5033973;28;20064;-74
2022/06/03 08:46:14;;;;;;;3.63;2.83;;;18.40;99.90;;;;;;5050165;28;20044;-73
2022/06/03 08:48:43;;;;;;;4.25;3.05;;;18.60;99.90;;;;;;5053853;28;20527;-73
2022/06/03 08:51:19;;;;;;;4.38;2.70;;;18.50;99.90;;;;;;5054895;28;20033;-74
2022/06/03 08:54:01;;;;;;;3.28;2.80;;;18.70;99.90;;;;;;5055055;28;20116;-73
2022/06/03 08:56:34;;;;;;;4.38;2.92;;;18.80;99.90;;;;;;5048036;28;20382;-73
2022/06/03 08:59:15;;;;;;;5.65;2.72;;;18.90;99.90;;;;;;5054840;28;20037;-73
2022/06/03 09:01:53;;;;;;;3.47;2.47;;;19.00;99.90;;;;;;5051654;28;20188;-73
2022/06/03 09:04:24;;;;;;;4.72;3.10;;;19.10;99.90;;;;;;5053388;28;20146;-73
2022/06/03 09:07:18;;;;;;;9.30;3.88;;;19.10;99.90;;;;;;5055845;28;20083;-74
2022/06/03 09:10:06;;;;;;;6.78;3.05;;;19.30;99.90;;;;;;5055540;28;20075;-72
2022/06/03 09:12:32;;;;;;;4.30;2.75;;;19.40;99.90;;;;;;5038180;28;20048;-75
2022/06/03 09:15:08;;;;;;;5.85;2.95;;;19.40;99.90;;;;;;5055578;28;20532;-73
2022/06/03 09:17:43;;;;;;;4.60;3.50;;;19.50;99.90;;;;;;5055538;28;20040;-73
2022/06/03 09:20:17;;;;;;;3.42;2.95;;;19.60;99.90;;;;;;5054656;28;20041;-73
2022/06/03 09:22:45;;;;;;;3.75;2.97;;;19.70;99.90;;;;;;5055013;28;20095;-73
2022/06/03 09:25:13;;;;;;;6.07;3.42;;;19.70;99.90;;;;;;5055861;28;20053;-73
2022/06/03 09:27:41;;;;;;;4.28;3.15;;;19.80;99.90;;;;;;5055431;28;20041;-73
2022/06/03 09:30:10;;;;;;;5.85;3.10;;;19.80;99.90;;;;;;5055403;28;20055;-73
2022/06/03 09:32:44;;;;;;;4.60;3.28;;;19.90;99.90;;;;;;5034468;28;20053;-73
2022/06/03 09:35:16;;;;;;;5.30;3.20;;;20.00;99.90;;;;;;5054026;28;20080;-73
2022/06/03 09:37:47;;;;;;;7.22;3.40;;;20.10;99.90;;;;;;5054470;28;20119;-73
2022/06/03 09:40:18;;;;;;;4.82;3.47;;;20.10;99.90;;;;;;5055028;28;20051;-72
2022/06/03 09:43:11;;;;;;;3.30;3.00;;;20.00;99.90;;;;;;5055034;28;20516;-72
2022/06/03 09:45:39;;;;;;;18.17;3.47;;;20.10;99.90;;;;;;5043934;28;20069;-73
2022/06/03 09:48:09;;;;;;;6.28;3.50;;;20.20;99.90;;;;;;5054903;28;20041;-74
2022/06/03 09:50:36;;;;;;;6.00;3.20;;;20.30;99.90;;;;;;5038244;28;20049;-73
2022/06/03 09:53:07;;;;;;;4.97;3.60;;;20.20;99.90;;;;;;5032008;28;20049;-73
2022/06/03 09:55:37;;;;;;;4.68;2.80;;;20.30;99.90;;;;;;5055770;28;20037;-74
2022/06/03 09:58:05;;;;;;;3.88;3.03;;;20.30;99.90;;;;;;5054685;28;20440;-73
2022/06/03 10:00:45;;;;;;;4.32;3.15;;;20.40;99.90;;;;;;5054755;28;20140;-74
2022/06/03 10:03:12;;;;;;;6.60;2.95;;;20.50;99.90;;;;;;5054716;28;20128;-74
2022/06/03 10:05:39;;;;;;;5.32;2.97;;;20.60;99.90;;;;;;5054493;28;20047;-73
2022/06/03 10:08:08;;;;;;;5.88;3.00;;;20.70;99.90;;;;;;5054727;28;20045;-74
2022/06/03 10:13:19;;;;;;;6.70;3.28;;;20.90;99.90;;;;;;5026037;28;20088;-75
2022/06/03 10:15:53;;;;;;;3.10;2.80;;;20.90;99.90;;;;;;5034398;28;20045;-73
2022/06/03 10:18:28;;;;;;;5.45;3.22;;;20.90;99.90;;;;;;5034540;28;20057;-75
2022/06/03 10:20:56;;;;;;;4.05;3.20;;;21.10;99.90;;;;;;5042900;28;20049;-74
2022/06/03 10:23:26;;;;;;;3.55;2.92;;;21.10;99.90;;;;;;5053887;28;20115;-73
2022/06/03 10:25:51;;;;;;;4.68;3.05;;;21.30;99.90;;;;;;5054200;28;20087;-74
2022/06/03 10:28:18;;;;;;;3.28;2.58;;;21.30;99.90;;;;;;5053596;28;20075;-73
2022/06/03 10:30:46;;;;;;;7.07;3.10;;;21.40;99.90;;;;;;5054369;28;20044;-74
2022/06/03 10:33:16;;;;;;;4.85;2.85;;;21.60;99.90;;;;;;5054536;28;20343;-74
2022/06/03 10:35:42;;;;;;;4.15;3.00;;;21.70;99.90;;;;;;5053913;28;20037;-74
2022/06/03 10:38:09;;;;;;;4.22;2.70;;;21.80;99.90;;;;;;5053858;28;20045;-74
2022/06/03 10:40:35;;;;;;;6.50;3.22;;;21.90;99.90;;;;;;5054365;28;20048;-75
2022/06/03 10:43:02;;;;;;;4.70;2.55;;;22.10;99.90;;;;;;5054335;28;20044;-74
2022/06/03 10:45:37;;;;;;;5.70;2.88;;;22.10;99.90;;;;;;5053429;28;20049;-74
2022/06/03 10:48:34;;;;;;;7.47;2.70;;;22.20;99.90;;;;;;5054088;28;20044;-74
2022/06/03 11:02:37;;;;;;;3.80;2.90;;;22.30;99.90;;;;;;5053109;28;20057;-74
2022/06/03 11:05:28;;;;;;;6.00;3.22;;;22.50;99.90;;;;;;5053794;28;20155;-75
2022/06/03 11:08:03;;;;;;;4.28;3.20;;;22.80;99.90;;;;;;5054278;28;20052;-73
2022/06/03 11:10:40;;;;;;;3.42;3.13;;;22.90;99.90;;;;;;5053786;28;20059;-73
2022/06/03 11:13:09;;;;;;;4.68;3.50;;;23.00;99.90;;;;;;5053753;28;20037;-74
2022/06/03 11:15:37;;;;;;;5.43;3.45;;;23.20;99.90;;;;;;5053279;28;20486;-74
2022/06/03 11:18:14;;;;;;;4.45;3.17;;;22.80;99.90;;;;;;5053192;28;20052;-74
2022/06/03 11:20:42;;;;;;;5.43;2.97;;;23.00;99.90;;;;;;5053671;28;20493;-75
2022/06/03 11:23:10;;;;;;;6.53;3.60;;;23.00;99.90;;;;;;5053342;28;20041;-74
2022/06/03 11:25:40;;;;;;;5.53;3.47;;;23.20;99.90;;;;;;5056449;28;20064;-75
2022/06/03 11:28:28;;;;;;;6.50;3.78;;;23.40;99.90;;;;;;5057158;28;20132;-73
2022/06/03 11:31:01;;;;;;;10.43;4.10;;;23.30;99.90;;;;;;5057232;28;20107;-73
2022/06/03 11:33:46;;;;;;;4.13;3.72;;;23.10;99.90;;;;;;5056574;28;20371;-73
2022/06/03 11:36:28;;;;;;;5.30;3.72;;;23.30;99.90;;;;;;5059488;28;20056;-73
2022/06/03 11:39:00;;;;;;;6.65;3.28;;;23.50;99.90;;;;;;5065524;28;20059;-74
2022/06/03 11:41:26;;;;;;;5.68;3.88;;;23.50;99.90;;;;;;5077137;28;20537;-77
2022/06/03 11:43:51;;;;;;;4.60;3.58;;;23.80;99.90;;;;;;5077094;28;20155;-74
2022/06/03 11:46:24;;;;;;;4.55;3.40;;;24.00;99.90;;;;;;5059760;28;20139;-76
2022/06/03 11:48:52;;;;;;;6.78;3.70;;;24.00;99.90;;;;;;5076778;28;20071;-75
2022/06/03 11:51:18;;;;;;;5.55;3.97;;;23.90;99.90;;;;;;5049054;28;20107;-74
2022/06/03 11:53:47;;;;;;;6.82;4.07;;;24.00;99.90;;;;;;5037349;28;20411;-75
2022/06/03 11:56:18;;;;;;;6.28;3.70;;;24.20;99.90;;;;;;5043293;28;20513;-74
2022/06/03 11:59:10;;;;;;;6.07;4.07;;;24.20;99.90;;;;;;5057071;28;20466;-75
2022/06/03 12:01:59;;;;;;;6.80;3.78;;;24.40;99.90;;;;;;5042247;28;20072;-75
2022/06/03 12:04:31;;;;;;;6.10;3.83;;;24.60;99.80;;;;;;5029787;28;20047;-75
2022/06/03 12:07:42;;;;;;;5.05;3.15;;;24.70;99.90;;;;;;5036830;28;20045;-72
2022/06/03 12:10:19;;;;;;;7.30;3.22;;;24.90;98.90;;;;;;5051079;28;20040;-75
2022/06/03 12:15:32;;;;;;;5.13;2.70;;;24.90;99.00;;;;;;5056432;28;20060;-75
2022/06/03 12:18:06;;;;;;;6.38;3.20;;;25.10;99.70;;;;;;5059501;28;20044;-75
2022/06/03 12:20:31;;;;;;;5.78;3.38;;;25.20;99.10;;;;;;5076570;28;20040;-75
2022/06/03 12:23:12;;;;;;;5.00;2.90;;;25.30;98.70;;;;;;5076437;28;20059;-75
2022/06/03 12:25:40;;;;;;;8.07;3.30;;;25.50;98.00;;;;;;5072767;28;20067;-75
2022/06/03 12:28:24;;;;;;;7.18;3.78;;;25.30;98.40;;;;;;5056525;28;20131;-75
2022/06/03 12:30:56;;;;;;;5.80;3.30;;;25.50;98.70;;;;;;5036149;28;20487;-75
2022/06/03 12:33:43;;;;;;;7.15;3.00;;;25.60;98.70;;;;;;5036352;28;20081;-76
2022/06/03 12:36:47;;;;;;;6.43;3.47;;;25.60;98.20;;;;;;5036292;28;20075;-76
2022/06/03 12:39:23;;;;;;;7.20;2.90;;;25.80;97.70;;;;;;5036228;28;20053;-74
2022/06/03 12:41:49;;;;;;;4.25;2.85;;;25.90;97.60;;;;;;5036201;28;20049;-73
2022/06/03 12:44:34;;;;;;;5.18;3.17;;;25.90;97.60;;;;;;5051438;28;20059;-74
2022/06/03 12:47:18;;;;;;;8.20;3.50;;;26.30;94.90;;;;;;5055793;28;20041;-73
2022/06/03 12:49:43;;;;;;;7.20;3.25;;;26.40;95.70;;;;;;5055979;28;20048;-73
2022/06/03 12:52:29;;;;;;;5.85;3.15;;;26.70;95.70;;;;;;5056029;28;20049;-73
2022/06/03 12:55:21;;;;;;;6.68;2.88;;;26.80;92.50;;;;;;5039993;28;20061;-72
2022/06/03 12:58:03;;;;;;;5.68;2.47;;;26.90;93.60;;;;;;5038127;28;20049;-74
2022/06/03 13:00:32;;;;;;;7.55;3.08;;;26.90;91.20;;;;;;5054874;28;20049;-74
2022/06/03 13:03:00;;;;;;;5.05;2.53;;;27.00;91.30;;;;;;5055642;28;20045;-74
2022/06/03 13:05:28;;;;;;;6.30;2.85;;;27.20;92.00;;;;;;5034773;28;20056;-73
2022/06/03 13:08:00;;;;;;;6.97;2.55;;;27.20;90.50;;;;;;5035334;28;20371;-73
2022/06/03 13:10:28;;;;;;;12.18;4.05;;;27.30;90.70;;;;;;5035544;28;20120;-73
2022/06/03 13:12:58;;;;;;;3.55;2.40;;;27.50;88.60;;;;;;5035546;28;20045;-73
2022/06/03 13:15:27;;;;;;;4.45;2.50;;;27.60;86.00;;;;;;5035172;28;20468;-74
2022/06/03 13:17:55;;;;;;;4.03;2.65;;;27.70;87.30;;;;;;5047810;28;20048;-73
2022/06/03 13:20:43;;;;;;;4.55;2.42;;;27.90;82.70;;;;;;5055032;28;20036;-77
2022/06/03 13:23:29;;;;;;;6.93;2.08;;;28.00;79.60;;;;;;5055197;28;20122;-76
2022/06/03 13:26:15;;;;;;;5.88;2.47;;;28.10;79.40;;;;;;5041678;28;20060;-73
2022/06/03 13:28:43;;;;;;;5.50;2.20;;;28.10;79.70;;;;;;5037595;28;20055;-73
2022/06/03 13:31:40;;;;;;;2.55;2.08;;;28.30;78.20;;;;;;5055127;28;20045;-73
2022/06/03 13:34:12;;;;;;;4.28;1.90;;;28.30;74.40;;;;;;5043353;28;20047;-71
2022/06/03 13:36:47;;;;;;;5.15;2.42;;;28.70;76.80;;;;;;5035061;28;20037;-73
2022/06/03 13:39:28;;;;;;;4.50;3.03;;;28.70;74.60;;;;;;5048495;28;20045;-75
2022/06/03 13:45:03;;;;;;;2.30;1.92;;;29.50;70.70;;;;;;5035091;28;20053;-75
2022/06/03 13:47:31;;;;;;;2.85;2.00;;;29.50;69.30;;;;;;5034104;28;20465;-72
2022/06/03 13:50:15;;;;;;;8.20;2.35;;;29.80;71.00;;;;;;5034936;28;20521;-72
2022/06/03 13:52:46;;;;;;;3.42;2.28;;;30.20;65.50;;;;;;5032845;28;20486;-74
2022/06/03 13:55:48;;;;;;;3.08;1.90;;;30.80;66.10;;;;;;5034949;28;20050;-77
2022/06/03 13:58:31;;;;;;;7.60;2.00;;;31.20;66.30;;;;;;5033881;28;20046;-75
2022/06/03 14:01:22;;;;;;;2.63;1.98;;;31.60;64.80;;;;;;5035188;28;20115;-83
2022/06/03 14:04:06;;;;;;;5.15;1.90;;;31.80;61.00;;;;;;5047650;28;20107;-81
2022/06/03 14:06:39;;;;;;;1.88;1.42;;;31.70;59.70;;;;;;5054386;28;20082;-77
2022/06/03 14:09:22;;;;;;;;;;;32.40;60.00;;;;;;5054549;28;20045;-81
2022/06/03 14:11:55;;;;;;;4.38;2.22;;;32.60;58.60;;;;;;5054743;28;19963;-82
2022/06/03 14:14:34;;;;;;;6.25;2.45;;;32.70;59.00;;;;;;5020740;28;20041;-82
2022/06/03 14:17:12;;;;;;;3.40;1.63;;;33.20;58.00;;;;;;5054701;28;20183;-83
2022/06/03 14:19:58;;;;;;;4.55;2.00;;;33.30;56.40;;;;;;5001401;28;20124;-82
2022/06/03 14:22:37;;;;;;;2.33;1.60;;;34.10;56.20;;;;;;5001193;28;20045;-82
2022/06/03 14:25:19;;;;;;;4.28;1.77;;;34.50;55.40;;;;;;5039679;28;20065;-83
2022/06/03 14:28:12;;;;;;;4.00;2.03;;;34.50;53.10;;;;;;5054740;28;20041;-82